createdAt,value
2017-04-28T06:28:59.049Z,77.77
2017-04-28T06:29:40.943Z,77.81
2017-04-28T06:30:22.795Z,78.15
2017-04-28T06:31:04.343Z,78.34
2017-04-28T06:31:46.161Z,78.19
2017-04-28T06:32:28.256Z,78.28
2017-04-28T06:33:10.111Z,78.28
2017-04-28T06:33:51.725Z,77.71
2017-04-28T06:34:33.588Z,77.81
2017-04-28T06:35:15.437Z,77.71
2017-04-28T06:35:56.502Z,77.9
2017-04-28T06:36:38.436Z,77.81
2017-04-28T06:37:20.191Z,78
2017-04-28T06:38:01.417Z,77.33
2017-04-28T06:38:43.232Z,77.62
2017-04-28T06:39:25.047Z,77.62
2017-04-28T06:40:06.757Z,77.62
2017-04-28T06:40:48.589Z,77.62
2017-04-28T06:41:30.486Z,77.71
2017-04-28T06:42:12.016Z,77.71
2017-04-28T06:42:53.627Z,77.81
2017-04-28T06:43:35.203Z,77.33
2017-04-28T06:44:18.070Z,77.52
2017-04-28T06:44:59.918Z,77.14
2017-04-28T06:45:41.748Z,77.05
2017-04-28T06:46:23.523Z,77.33
2017-04-28T06:47:05.329Z,77.24
2017-04-28T06:47:47.236Z,77.24
2017-04-28T06:48:28.856Z,77.43
2017-04-28T06:49:10.627Z,76.86
2017-04-28T06:49:52.526Z,77.33
2017-04-28T06:50:34.337Z,76.76
2017-04-28T06:51:16.289Z,76.86
2017-04-28T06:51:58.059Z,77.05
2017-04-28T06:52:39.986Z,76.86
2017-04-28T06:53:21.882Z,76.86
2017-04-28T06:54:03.613Z,76.86
2017-04-28T06:54:46.511Z,76.95
2017-04-28T06:55:28.282Z,76.39
2017-04-28T06:56:10.165Z,76.57
2017-04-28T06:56:51.129Z,76.76
2017-04-28T06:57:32.612Z,76.67
2017-04-28T06:58:13.461Z,76.14
2017-04-28T06:58:54.823Z,76.32
2017-04-28T06:59:41.415Z,76.42
2017-04-28T07:00:23.318Z,76.23
2017-04-28T07:01:03.964Z,76.04
2017-04-28T07:01:45.426Z,76.14
2017-04-28T07:02:27.114Z,76.32
2017-04-28T07:03:08.270Z,76.23
2017-04-28T07:03:49.746Z,75.76
2017-04-28T07:04:31.102Z,76.04
2017-04-28T07:05:12.338Z,75.95
2017-04-28T07:05:54.482Z,75.85
2017-04-28T07:06:35.993Z,75.85
2017-04-28T07:07:17.360Z,75.38
2017-04-28T07:07:59.107Z,75.57
2017-04-28T07:08:41.025Z,75.19
2017-04-28T07:09:22.953Z,75.57
2017-04-28T07:10:04.541Z,75.28
2017-04-28T07:10:46.432Z,75.47
2017-04-28T07:11:28.316Z,75.28
2017-04-28T07:12:09.892Z,74.9
2017-04-28T07:12:51.340Z,75.09
2017-04-28T07:13:32.809Z,74.81
2017-04-28T07:14:14.310Z,75.19
2017-04-28T07:14:55.828Z,74.33
2017-04-28T07:15:40.008Z,74.08
2017-04-28T07:16:22.897Z,74.08
2017-04-28T07:17:04.055Z,74.47
2017-04-28T07:17:45.717Z,73.8
2017-04-28T07:18:27.567Z,73.8
2017-04-28T07:19:09.321Z,73.9
2017-04-28T07:19:51.064Z,73.61
2017-04-28T07:20:32.932Z,73.42
2017-04-28T07:21:14.405Z,73.61
2017-04-28T07:21:56.385Z,73.61
2017-04-28T07:22:38.602Z,73.61
2017-04-28T07:23:20.409Z,73.8
2017-04-28T07:24:02.241Z,73.9
2017-04-28T07:24:44.093Z,73.14
2017-04-28T07:25:26.045Z,73.42
2017-04-28T07:26:07.891Z,72.66
2017-04-28T07:26:49.564Z,72.75
2017-04-28T07:27:31.324Z,72.89
2017-04-28T07:28:13.094Z,72.89
2017-04-28T07:28:54.914Z,72.99
2017-04-28T07:29:36.490Z,72.32
2017-04-28T07:30:18.233Z,72.32
2017-04-28T07:31:00.113Z,72.13
2017-04-28T07:31:41.897Z,72.03
2017-04-28T07:32:23.670Z,72.13
2017-04-28T07:33:05.444Z,72.13
2017-04-28T07:33:46.845Z,72.32
2017-04-28T07:34:27.458Z,72.13
2017-04-28T07:35:08.108Z,71.84
2017-04-28T07:35:48.800Z,71.66
2017-04-28T07:36:29.363Z,72.13
2017-04-28T07:37:10.020Z,72.13
2017-04-28T07:37:50.771Z,71.75
2017-04-28T07:38:31.601Z,71.94
2017-04-28T07:39:12.386Z,71.46
2017-04-28T07:39:53.052Z,71.56
2017-04-28T07:40:33.607Z,71.46
2017-04-28T07:41:14.368Z,71.66
2017-04-28T07:41:55.103Z,71.37
2017-04-28T07:42:35.815Z,71.27
2017-04-28T07:43:16.394Z,71.08
2017-04-28T07:43:57.123Z,71.22
2017-04-28T07:44:37.743Z,70.74
2017-04-28T07:45:18.349Z,71.02
2017-04-28T07:45:58.928Z,70.83
2017-04-28T07:46:39.556Z,70.54
2017-04-28T07:47:20.159Z,70.36
2017-04-28T07:48:00.730Z,70.07
2017-04-28T07:48:41.293Z,69.98
2017-04-28T07:49:21.962Z,70.36
2017-04-28T07:50:02.595Z,70.26
2017-04-28T07:50:43.216Z,69.88
2017-04-28T07:51:23.864Z,69.88
2017-04-28T07:52:04.509Z,69.6
2017-04-28T07:52:45.172Z,69.69
2017-04-28T07:53:25.819Z,69.79
2017-04-28T07:54:06.423Z,69.79
2017-04-28T07:54:47.018Z,69.69
2017-04-28T07:55:27.704Z,69.69
2017-04-28T07:56:08.297Z,69.69
2017-04-28T07:56:48.949Z,69.79
2017-04-28T07:57:29.588Z,69.54
2017-04-28T07:58:10.269Z,69.12
2017-04-28T07:58:50.881Z,69.15
2017-04-28T07:59:31.547Z,69.54
2017-04-28T08:00:12.211Z,69.25
2017-04-28T08:00:52.852Z,69.15
2017-04-28T08:01:33.525Z,68.96
2017-04-28T08:02:14.155Z,69.35
2017-04-28T08:02:54.815Z,68.77
2017-04-28T08:03:35.519Z,68.87
2017-04-28T08:04:16.128Z,68.21
2017-04-28T08:04:56.762Z,68.33
2017-04-28T08:05:37.433Z,68.05
2017-04-28T08:06:18.073Z,67.86
2017-04-28T08:06:58.742Z,67.95
2017-04-28T08:07:39.377Z,67.95
2017-04-28T08:08:20.048Z,67.47
2017-04-28T08:09:00.700Z,67.76
2017-04-28T08:09:41.354Z,67.57
2017-04-28T08:10:22.000Z,67.29
2017-04-28T08:11:02.619Z,67
2017-04-28T08:11:43.196Z,67.19
2017-04-28T08:12:23.858Z,67.13
2017-04-28T08:13:04.499Z,67.1
2017-04-28T08:13:45.172Z,67.13
2017-04-28T08:14:25.801Z,66.75
2017-04-28T08:15:06.447Z,66.46
2017-04-28T08:15:47.121Z,66.66
2017-04-28T08:16:28.802Z,66.94
2017-04-28T08:17:09.439Z,66.46
2017-04-28T08:17:50.113Z,66.18
2017-04-28T08:18:30.758Z,66.37
2017-04-28T08:19:11.399Z,66.56
2017-04-28T08:19:52.028Z,66.18
2017-04-28T08:20:32.580Z,66.08
2017-04-28T08:21:13.157Z,66.08
2017-04-28T08:21:53.797Z,65.89
2017-04-28T08:22:34.376Z,65.23
2017-04-28T08:23:15.044Z,65.51
2017-04-28T08:23:56.682Z,65.64
2017-04-28T08:24:37.250Z,65.64
2017-04-28T08:25:17.951Z,65.55
2017-04-28T08:25:58.592Z,65.16
2017-04-28T08:26:39.190Z,64.87
2017-04-28T08:27:19.772Z,64.78
2017-04-28T08:28:00.418Z,64.97
2017-04-28T08:28:40.989Z,64.87
2017-04-28T08:29:21.593Z,64.5
2017-04-28T08:30:02.188Z,64.59
2017-04-28T08:30:42.808Z,64.53
2017-04-28T08:31:23.471Z,63.83
2017-04-28T08:32:04.152Z,64.24
2017-04-28T08:32:44.888Z,64.05
2017-04-28T08:33:25.656Z,63.67
2017-04-28T08:34:06.287Z,63.64
2017-04-28T08:34:47.179Z,63.73
2017-04-28T08:35:27.804Z,64.31
2017-04-28T08:36:08.590Z,64.21
2017-04-28T08:36:49.192Z,63.92
2017-04-28T08:37:29.871Z,64.31
2017-04-28T08:38:10.501Z,64.31
2017-04-28T08:38:51.571Z,64.31
2017-04-28T08:39:32.208Z,64.69
2017-04-28T08:40:12.861Z,64.5
2017-04-28T08:40:53.421Z,64.75
2017-04-28T08:41:34.083Z,64.94
2017-04-28T08:42:14.717Z,65.13
2017-04-28T08:42:55.276Z,64.65
2017-04-28T08:43:35.929Z,64.94
2017-04-28T08:44:16.570Z,65.23
2017-04-28T08:44:57.123Z,65.03
2017-04-28T08:45:38.830Z,65.51
2017-04-28T08:46:19.470Z,65.38
2017-04-28T08:47:00.015Z,65.58
2017-04-28T08:47:40.713Z,65.29
2017-04-28T08:48:21.334Z,65.86
2017-04-28T08:49:01.903Z,65.77
2017-04-28T08:49:42.541Z,66.05
2017-04-28T08:50:23.181Z,65.86
2017-04-28T08:51:03.783Z,66.14
2017-04-28T08:51:44.394Z,66.14
2017-04-28T08:52:25.015Z,66.14
2017-04-28T08:53:05.572Z,66.33
2017-04-28T08:53:46.233Z,66.3
2017-04-28T08:54:26.866Z,66.53
2017-04-28T08:55:07.409Z,66.3
2017-04-28T08:55:49.042Z,66.43
2017-04-28T08:56:29.706Z,66.39
2017-04-28T08:57:10.292Z,66.49
2017-04-28T08:57:50.861Z,66.39
2017-04-28T08:58:31.548Z,66.24
2017-04-28T08:59:12.228Z,66.39
2017-04-28T08:59:52.821Z,66.43
2017-04-28T09:00:33.513Z,66.43
2017-04-28T09:01:14.166Z,66.2
2017-04-28T09:01:54.832Z,66.43
2017-04-28T09:02:35.620Z,66.33
2017-04-28T09:03:16.171Z,66.53
2017-04-28T09:03:56.816Z,66.53
2017-04-28T09:04:37.440Z,66.43
2017-04-28T09:05:18.092Z,66.43
2017-04-28T09:05:58.733Z,66.24
2017-04-28T09:06:39.406Z,66.33
2017-04-28T09:07:20.055Z,66.24
2017-04-28T09:08:01.714Z,66.05
2017-04-28T09:08:42.366Z,66.14
2017-04-28T09:09:23.043Z,66.14
2017-04-28T09:10:03.680Z,66.24
2017-04-28T09:10:44.339Z,65.86
2017-04-28T09:11:24.991Z,65.77
2017-04-28T09:12:05.644Z,65.7
2017-04-28T09:12:46.302Z,65.61
2017-04-28T09:13:26.930Z,65.51
2017-04-28T09:14:07.610Z,65.7
2017-04-28T09:14:48.165Z,64.84
2017-04-28T09:15:28.754Z,64.94
2017-04-28T09:16:09.394Z,64.97
2017-04-28T09:16:50.034Z,64.69
2017-04-28T09:17:30.614Z,64.31
2017-04-28T09:18:11.262Z,64.21
2017-04-28T09:18:51.865Z,63.92
2017-04-28T09:19:32.466Z,63.57
2017-04-28T09:20:13.095Z,63.39
2017-04-28T09:20:53.756Z,63.48
2017-04-28T09:21:35.328Z,62.91
2017-04-28T09:22:16.028Z,62.72
2017-04-28T09:22:56.654Z,62.72
2017-04-28T09:23:37.309Z,62.34
2017-04-28T09:24:17.969Z,61.99
2017-04-28T09:24:58.552Z,62.08
2017-04-28T09:25:39.188Z,61.51
2017-04-28T09:26:19.817Z,61.51
2017-04-28T09:27:00.489Z,61.22
2017-04-28T09:27:41.164Z,61.13
2017-04-28T09:28:21.793Z,60.84
2017-04-28T09:29:02.437Z,60.55
2017-04-28T09:29:43.159Z,60.65
2017-04-28T09:30:23.771Z,60.46
2017-04-28T09:31:04.374Z,60.27
2017-04-28T09:31:45.015Z,59.99
2017-04-28T09:32:25.729Z,59.89
2017-04-28T09:33:06.400Z,59.6
2017-04-28T09:33:47.074Z,59.73
2017-04-28T09:34:27.647Z,59.31
2017-04-28T09:35:08.300Z,59.25
2017-04-28T09:35:48.956Z,59.25
2017-04-28T09:36:29.673Z,58.87
2017-04-28T09:37:10.260Z,58.97
2017-04-28T09:37:50.922Z,58.77
2017-04-28T09:38:31.593Z,58.58
2017-04-28T09:39:12.217Z,58.39
2017-04-28T09:39:52.879Z,58.36
2017-04-28T09:40:33.528Z,58.29
2017-04-28T09:41:14.197Z,58.29
2017-04-28T09:41:54.848Z,57.92
2017-04-28T09:42:35.493Z,57.72
2017-04-28T09:43:16.140Z,57.79
2017-04-28T09:43:56.944Z,57.7
2017-04-28T09:44:37.630Z,57.82
2017-04-28T09:45:18.277Z,57.98
2017-04-28T09:45:58.877Z,57.92
2017-04-28T09:46:39.516Z,57.63
2017-04-28T09:47:20.147Z,57.6
2017-04-28T09:48:00.704Z,58.01
2017-04-28T09:48:41.368Z,57.98
2017-04-28T09:49:22.004Z,58.07
2017-04-28T09:50:02.581Z,57.89
2017-04-28T09:50:43.192Z,58.46
2017-04-28T09:51:23.774Z,58.55
2017-04-28T09:52:04.415Z,58.26
2017-04-28T09:52:45.061Z,58.26
2017-04-28T09:53:25.729Z,58.84
2017-04-28T09:54:06.306Z,58.46
2017-04-28T09:54:46.925Z,59.03
2017-04-28T09:55:27.586Z,58.65
2017-04-28T09:56:08.239Z,59.09
2017-04-28T09:56:48.894Z,59.28
2017-04-28T09:57:29.587Z,59.67
2017-04-28T09:58:10.205Z,59.67
2017-04-28T09:58:50.841Z,59.48
2017-04-28T09:59:31.504Z,59.95
2017-04-28T10:00:12.085Z,59.57
2017-04-28T10:00:52.719Z,59.95
2017-04-28T10:01:33.341Z,60.14
2017-04-28T10:02:14.033Z,59.76
2017-04-28T10:02:54.708Z,60.24
2017-04-28T10:03:35.301Z,60.24
2017-04-28T10:04:15.879Z,60.24
2017-04-28T10:04:56.546Z,60.33
2017-04-28T10:05:37.217Z,60.24
2017-04-28T10:06:17.807Z,60.24
2017-04-28T10:06:58.366Z,60.24
2017-04-28T10:07:39.022Z,60.33
2017-04-28T10:08:19.616Z,60.43
2017-04-28T10:09:00.309Z,60.43
2017-04-28T10:09:40.876Z,60.43
2017-04-28T10:10:21.542Z,60.62
2017-04-28T10:11:02.129Z,60.62
2017-04-28T10:11:42.812Z,60.52
2017-04-28T10:12:23.373Z,60.52
2017-04-28T10:13:04.057Z,60.52
2017-04-28T10:13:44.638Z,60.52
2017-04-28T10:14:25.236Z,60.52
2017-04-28T10:15:05.796Z,60.33
2017-04-28T10:15:46.449Z,60.43
2017-04-28T10:16:27.050Z,60.62
2017-04-28T10:17:07.738Z,60.59
2017-04-28T10:17:48.329Z,60.62
2017-04-28T10:18:28.964Z,60.43
2017-04-28T10:19:10.577Z,60.62
2017-04-28T10:19:51.190Z,60.59
2017-04-28T10:20:31.770Z,60.62
2017-04-28T10:21:12.355Z,60.43
2017-04-28T10:21:52.995Z,60.62
2017-04-28T10:22:33.757Z,60.52
2017-04-28T10:23:14.331Z,60.43
2017-04-28T10:23:55.006Z,60.72
2017-04-28T10:24:35.612Z,60.52
2017-04-28T10:25:16.211Z,60.62
2017-04-28T10:25:56.779Z,60.62
2017-04-28T10:26:37.395Z,60.43
2017-04-28T10:27:18.093Z,60.43
2017-04-28T10:27:58.719Z,60.43
2017-04-28T10:28:39.424Z,60.62
2017-04-28T10:29:20.067Z,60.43
2017-04-28T10:30:00.760Z,60.33
2017-04-28T10:30:41.432Z,60.33
2017-04-28T10:31:22.098Z,60.24
2017-04-28T10:32:02.727Z,60.62
2017-04-28T10:32:43.403Z,60.81
2017-04-28T10:33:24.026Z,60.62
2017-04-28T10:34:04.693Z,60.59
2017-04-28T10:34:45.401Z,60.69
2017-04-28T10:35:25.981Z,60.59
2017-04-28T10:36:06.835Z,60.4
2017-04-28T10:36:47.879Z,60.69
2017-04-28T10:37:28.538Z,60.59
2017-04-28T10:38:09.174Z,60.88
2017-04-28T10:38:49.994Z,60.59
2017-04-28T10:39:30.801Z,60.78
2017-04-28T10:40:11.793Z,61.16
2017-04-28T10:40:52.535Z,60.49
2017-04-28T10:41:33.224Z,60.88
2017-04-28T10:42:13.781Z,60.78
2017-04-28T10:42:54.427Z,61.07
2017-04-28T10:43:35.160Z,61.35
2017-04-28T10:44:15.844Z,61.35
2017-04-28T10:44:56.474Z,61.35
2017-04-28T10:45:37.212Z,61.64
2017-04-28T10:46:17.947Z,61.64
2017-04-28T10:46:58.630Z,61.64
2017-04-28T10:47:39.386Z,61.45
2017-04-28T10:48:20.155Z,61.64
2017-04-28T10:49:00.946Z,61.35
2017-04-28T10:49:41.636Z,61.83
2017-04-28T10:50:22.421Z,61.73
2017-04-28T10:51:03.154Z,61.25
2017-04-28T10:51:43.694Z,61.45
2017-04-28T10:52:24.471Z,61.45
2017-04-28T10:53:05.344Z,61.35
2017-04-28T10:53:46.071Z,61.35
2017-04-28T10:54:26.616Z,61.45
2017-04-28T10:55:07.404Z,61.64
2017-04-28T10:55:48.084Z,61.54
2017-04-28T10:56:28.995Z,61.64
2017-04-28T10:57:09.554Z,61.45
2017-04-28T10:57:50.372Z,61.64
2017-04-28T10:58:31.072Z,61.54
2017-04-28T10:59:11.803Z,61.29
2017-04-28T10:59:52.375Z,61.1
2017-04-28T11:00:33.111Z,61.1
2017-04-28T11:01:13.862Z,60.91
2017-04-28T11:01:54.610Z,60.81
2017-04-28T11:02:35.352Z,61.29
2017-04-28T11:03:15.933Z,61
2017-04-28T11:03:56.728Z,60.62
2017-04-28T11:04:37.421Z,60.81
2017-04-28T11:05:18.084Z,60.81
2017-04-28T11:05:58.778Z,61.1
2017-04-28T11:06:39.454Z,61
2017-04-28T11:07:20.031Z,60.33
2017-04-28T11:08:00.691Z,60.43
2017-04-28T11:08:41.389Z,60.52
2017-04-28T11:09:22.081Z,60.43
2017-04-28T11:10:02.638Z,60.27
2017-04-28T11:10:43.334Z,59.7
2017-04-28T11:11:24.438Z,59.7
2017-04-28T11:12:05.260Z,59.6
2017-04-28T11:12:46.007Z,59.22
2017-04-28T11:13:26.724Z,59.22
2017-04-28T11:14:07.373Z,59.53
2017-04-28T11:14:48.371Z,58.97
2017-04-28T11:15:29.087Z,59.06
2017-04-28T11:16:09.661Z,58.58
2017-04-28T11:16:50.509Z,58.2
2017-04-28T11:17:31.348Z,57.92
2017-04-28T11:18:11.939Z,57.82
2017-04-28T11:18:52.663Z,57.75
2017-04-28T11:19:33.414Z,57.65
2017-04-28T11:20:14.233Z,57.37
2017-04-28T11:20:54.947Z,57.09
2017-04-28T11:21:35.692Z,56.8
2017-04-28T11:22:16.351Z,56.63
2017-04-28T11:22:57.113Z,56.82
2017-04-28T11:23:37.934Z,56.16
2017-04-28T11:24:18.808Z,55.77
2017-04-28T11:24:59.582Z,55.77
2017-04-28T11:25:40.326Z,55.96
2017-04-28T11:26:21.252Z,55.49
2017-04-28T11:27:01.975Z,55.2
2017-04-28T11:27:42.714Z,55.2
2017-04-28T11:28:23.563Z,55.2
2017-04-28T11:29:04.347Z,55.01
2017-04-28T11:29:45.130Z,55.49
2017-04-28T11:30:25.978Z,55.4
2017-04-28T11:31:06.786Z,55.32
2017-04-28T11:31:47.413Z,55.04
2017-04-28T11:32:28.154Z,54.94
2017-04-28T11:33:11.789Z,54.66
2017-04-28T11:33:52.743Z,54.85
2017-04-28T11:34:33.442Z,54.85
2017-04-28T11:35:14.096Z,55.04
2017-04-28T11:35:55.014Z,54.66
2017-04-28T11:36:35.791Z,54.66
2017-04-28T11:37:16.820Z,54.75
2017-04-28T11:37:57.554Z,54.47
2017-04-28T11:38:38.289Z,54.56
2017-04-28T11:39:19.103Z,54.56
2017-04-28T11:39:59.773Z,54.56
2017-04-28T11:40:40.576Z,54.75
2017-04-28T11:41:21.267Z,54.66
2017-04-28T11:42:02.067Z,55.23
2017-04-28T11:42:42.777Z,55.49
2017-04-28T11:43:23.447Z,55.96
2017-04-28T11:44:04.211Z,55.68
2017-04-28T11:44:44.961Z,56.06
2017-04-28T11:45:25.578Z,56.35
2017-04-28T11:46:06.217Z,56.54
2017-04-28T11:46:47.326Z,56.54
2017-04-28T11:47:27.886Z,56.63
2017-04-28T11:48:08.613Z,56.25
2017-04-28T11:48:49.221Z,56.45
2017-04-28T11:49:29.802Z,56.35
2017-04-28T11:50:10.383Z,55.87
2017-04-28T11:50:51.036Z,55.96
2017-04-28T11:51:31.830Z,55.49
2017-04-28T11:52:12.416Z,55.87
2017-04-28T11:52:52.969Z,56.06
2017-04-28T11:53:33.646Z,55.77
2017-04-28T11:54:14.217Z,55.3
2017-04-28T11:54:54.856Z,55.23
2017-04-28T11:55:35.468Z,55.4
2017-04-28T11:56:16.161Z,55.2
2017-04-28T11:56:56.814Z,55.58
2017-04-28T11:57:37.549Z,55.3
2017-04-28T11:58:18.111Z,55.2
2017-04-28T11:58:58.812Z,55.2
2017-04-28T11:59:39.421Z,55.3
2017-04-28T12:00:20.138Z,55.2
2017-04-28T12:01:00.719Z,55.49
2017-04-28T12:01:41.364Z,55.4
2017-04-28T12:02:22.016Z,55.4
2017-04-28T12:03:02.668Z,55.11
2017-04-28T12:03:43.314Z,55.2
2017-04-28T12:04:23.970Z,55.3
2017-04-28T12:05:04.611Z,54.91
2017-04-28T12:05:45.219Z,54.82
2017-04-28T12:06:25.807Z,55.4
2017-04-28T12:07:06.383Z,55.3
2017-04-28T12:07:47.038Z,55.49
2017-04-28T12:08:27.613Z,55.11
2017-04-28T12:09:08.214Z,55.11
2017-04-28T12:09:48.789Z,55.01
2017-04-28T12:10:29.440Z,54.72
2017-04-28T12:11:10.027Z,54.89
2017-04-28T12:11:50.656Z,55.27
2017-04-28T12:12:31.215Z,55.18
2017-04-28T12:13:11.900Z,55.55
2017-04-28T12:13:52.523Z,56.04
2017-04-28T12:14:33.134Z,55.94
2017-04-28T12:15:13.682Z,55.75
2017-04-28T12:15:54.358Z,55.3
2017-04-28T12:16:34.946Z,55.11
2017-04-28T12:17:15.542Z,54.91
2017-04-28T12:17:56.116Z,54.82
2017-04-28T12:18:36.785Z,54.53
2017-04-28T12:19:17.444Z,54.63
2017-04-28T12:19:58.051Z,54.82
2017-04-28T12:20:38.701Z,54.63
2017-04-28T12:21:19.353Z,54.44
2017-04-28T12:22:00.005Z,54.53
2017-04-28T12:22:40.776Z,54.44
2017-04-28T12:23:21.559Z,54.25
2017-04-28T12:24:03.153Z,54.15
2017-04-28T12:24:43.742Z,54.25
2017-04-28T12:25:24.313Z,54.44
2017-04-28T12:26:04.967Z,54.15
2017-04-28T12:26:45.602Z,54.06
2017-04-28T12:27:26.183Z,54.06
2017-04-28T12:28:06.832Z,54.15
2017-04-28T12:28:47.823Z,53.86
2017-04-28T12:29:28.422Z,53.67
2017-04-28T12:30:09.088Z,53.86
2017-04-28T12:30:49.721Z,53.67
2017-04-28T12:31:30.419Z,53.2
2017-04-28T12:32:11.031Z,53.58
2017-04-28T12:32:51.696Z,53.49
2017-04-28T12:33:32.347Z,53.49
2017-04-28T12:34:13.000Z,53.58
2017-04-28T12:34:53.675Z,53.1
2017-04-28T12:35:34.240Z,53.39
2017-04-28T12:36:14.876Z,53
2017-04-28T12:36:55.533Z,53
2017-04-28T12:37:36.166Z,53
2017-04-28T12:38:16.861Z,53.1
2017-04-28T12:38:57.456Z,53
2017-04-28T12:39:38.031Z,52.46
2017-04-28T12:40:18.671Z,52.65
2017-04-28T12:40:59.417Z,52.46
2017-04-28T12:41:39.983Z,51.89
2017-04-28T12:42:20.659Z,52.17
2017-04-28T12:43:01.310Z,51.91
2017-04-28T12:43:41.943Z,51.43
2017-04-28T12:44:22.600Z,50.76
2017-04-28T12:45:03.246Z,50.19
2017-04-28T12:45:43.860Z,50.5
2017-04-28T12:46:25.468Z,50.31
2017-04-28T12:47:06.026Z,50.02
2017-04-28T12:47:46.758Z,50.02
2017-04-28T12:48:27.382Z,50.12
2017-04-28T12:49:07.970Z,50.21
2017-04-28T12:49:48.548Z,49.64
2017-04-28T12:50:29.178Z,49.35
2017-04-28T12:51:09.829Z,49.26
2017-04-28T12:51:50.398Z,48.8
2017-04-28T12:52:31.061Z,49.48
2017-04-28T12:53:11.681Z,48.88
2017-04-28T12:53:52.272Z,48.49
2017-04-28T12:54:32.909Z,48.88
2017-04-28T12:55:13.533Z,49.35
2017-04-28T12:55:54.189Z,49.35
2017-04-28T12:56:34.850Z,49.26
2017-04-28T12:57:15.501Z,49.26
2017-04-28T12:57:56.172Z,49.16
2017-04-28T12:58:36.816Z,49.04
2017-04-28T12:59:17.449Z,49.23
2017-04-28T12:59:58.173Z,49.23
2017-04-28T13:00:38.755Z,49.33
2017-04-28T13:01:19.349Z,49.62
2017-04-28T13:02:00.065Z,50.09
2017-04-28T13:02:40.648Z,50.38
2017-04-28T13:03:21.243Z,49.9
2017-04-28T13:04:01.922Z,49.9
2017-04-28T13:04:42.494Z,49.78
2017-04-28T13:05:23.136Z,49.98
2017-04-28T13:06:03.794Z,50.07
2017-04-28T13:06:44.491Z,50.35
2017-04-28T13:07:25.110Z,50.45
2017-04-28T13:08:05.753Z,50.74
2017-04-28T13:08:46.411Z,50.16
2017-04-28T13:09:27.057Z,50.48
2017-04-28T13:10:07.734Z,50.29
2017-04-28T13:10:48.381Z,50.38
2017-04-28T13:11:29.032Z,50.09
2017-04-28T13:12:09.614Z,49.8
2017-04-28T13:12:50.242Z,50.09
2017-04-28T13:13:30.867Z,50.19
2017-04-28T13:14:11.526Z,50
2017-04-28T13:14:52.188Z,50.09
2017-04-28T13:15:32.776Z,50.38
2017-04-28T13:16:13.358Z,50.07
2017-04-28T13:16:53.986Z,50.35
2017-04-28T13:17:34.602Z,50.64
2017-04-28T13:18:15.285Z,50.93
2017-04-28T13:18:55.869Z,50.74
2017-04-28T13:19:36.465Z,50.64
2017-04-28T13:20:17.090Z,50.84
2017-04-28T13:20:57.761Z,51.12
2017-04-28T13:21:38.349Z,50.55
2017-04-28T13:22:18.930Z,50.45
2017-04-28T13:22:59.581Z,50.16
2017-04-28T13:23:40.282Z,50.26
2017-04-28T13:24:20.859Z,49.78
2017-04-28T13:25:01.550Z,49.88
2017-04-28T13:25:42.168Z,50.09
2017-04-28T13:26:22.841Z,50.38
2017-04-28T13:27:03.495Z,50.09
2017-04-28T13:27:44.193Z,50.09
2017-04-28T13:28:25.570Z,50.19
2017-04-28T13:29:07.213Z,50.09
2017-04-28T13:29:47.856Z,50
2017-04-28T13:30:28.493Z,50
2017-04-28T13:31:09.125Z,50
2017-04-28T13:31:49.859Z,50
2017-04-28T13:32:30.477Z,50
2017-04-28T13:33:11.092Z,50.19
2017-04-28T13:33:51.666Z,50.26
2017-04-28T13:34:32.318Z,49.98
2017-04-28T13:35:12.950Z,49.88
2017-04-28T13:35:53.580Z,50.26
2017-04-28T13:36:34.168Z,50.35
2017-04-28T13:37:14.770Z,50.74
2017-04-28T13:37:55.450Z,50.93
2017-04-28T13:38:36.069Z,50.64
2017-04-28T13:39:16.679Z,50.9
2017-04-28T13:39:57.266Z,50.9
2017-04-28T13:40:37.859Z,51.57
2017-04-28T13:41:18.511Z,51.19
2017-04-28T13:41:59.171Z,51.38
2017-04-28T13:42:39.818Z,51.09
2017-04-28T13:43:20.470Z,51.09
2017-04-28T13:44:01.226Z,51.29
2017-04-28T13:44:41.885Z,51.09
2017-04-28T13:45:22.462Z,51.38
2017-04-28T13:46:03.099Z,51.48
2017-04-28T13:46:43.758Z,51.48
2017-04-28T13:47:24.409Z,51
2017-04-28T13:48:05.068Z,51.19
2017-04-28T13:48:45.700Z,50.81
2017-04-28T13:49:26.339Z,50.74
2017-04-28T13:50:06.969Z,51.03
2017-04-28T13:50:47.612Z,50.52
2017-04-28T13:51:28.226Z,50.74
2017-04-28T13:52:08.898Z,50.45
2017-04-28T13:52:49.537Z,50.45
2017-04-28T13:53:30.247Z,50.45
2017-04-28T13:54:10.834Z,50.26
2017-04-28T13:54:51.583Z,50.16
2017-04-28T13:55:32.650Z,49.88
2017-04-28T13:56:13.254Z,50.26
2017-04-28T13:56:53.863Z,50.26
2017-04-28T13:57:34.519Z,50.35
2017-04-28T13:58:15.240Z,50.07
2017-04-28T13:58:55.940Z,50.45
2017-04-28T13:59:36.580Z,50.16
2017-04-28T14:00:17.234Z,50.07
2017-04-28T14:00:57.857Z,50.07
2017-04-28T14:01:38.435Z,49.78
2017-04-28T14:02:19.132Z,49.43
2017-04-28T14:02:59.712Z,49.52
2017-04-28T14:03:40.273Z,49.23
2017-04-28T14:04:20.943Z,49.43
2017-04-28T14:05:01.567Z,49.62
2017-04-28T14:05:42.138Z,49.14
2017-04-28T14:06:22.809Z,49.23
2017-04-28T14:07:03.490Z,49.14
2017-04-28T14:07:44.183Z,48.85
2017-04-28T14:08:24.756Z,48.75
2017-04-28T14:09:05.411Z,48.75
2017-04-28T14:09:46.004Z,48.57
2017-04-28T14:10:26.578Z,48.66
2017-04-28T14:11:08.195Z,48.57
2017-04-28T14:11:48.819Z,48.85
2017-04-28T14:12:29.393Z,49.04
2017-04-28T14:13:09.973Z,48.95
2017-04-28T14:13:50.674Z,49.23
2017-04-28T14:14:31.244Z,49.23
2017-04-28T14:15:11.896Z,49.04
2017-04-28T14:15:52.615Z,49.33
2017-04-28T14:16:33.287Z,49.49
2017-04-28T14:17:13.935Z,49.69
2017-04-28T14:17:54.594Z,50.07
2017-04-28T14:18:35.249Z,50.26
2017-04-28T14:19:15.894Z,50.07
2017-04-28T14:19:56.572Z,49.78
2017-04-28T14:20:37.145Z,49.98
2017-04-28T14:21:17.810Z,50.35
2017-04-28T14:21:58.468Z,50.26
2017-04-28T14:22:39.058Z,49.88
2017-04-28T14:23:19.630Z,50.16
2017-04-28T14:24:00.285Z,50.64
2017-04-28T14:24:40.887Z,50.52
2017-04-28T14:25:21.462Z,50.52
2017-04-28T14:26:03.141Z,50.93
2017-04-28T14:26:43.802Z,50.71
2017-04-28T14:27:24.440Z,50.74
2017-04-28T14:28:05.103Z,50.45
2017-04-28T14:28:45.760Z,50.45
2017-04-28T14:29:26.429Z,50.55
2017-04-28T14:30:07.064Z,50.62
2017-04-28T14:30:47.633Z,50.43
2017-04-28T14:31:28.537Z,50.14
2017-04-28T14:32:09.201Z,50.24
2017-04-28T14:32:49.775Z,50.24
2017-04-28T14:33:30.443Z,50.14
2017-04-28T14:34:11.090Z,49.95
2017-04-28T14:34:51.665Z,49.85
2017-04-28T14:35:32.328Z,50.24
2017-04-28T14:36:12.969Z,50.14
2017-04-28T14:36:53.545Z,49.85
2017-04-28T14:37:34.159Z,50.24
2017-04-28T14:38:14.816Z,50.43
2017-04-28T14:38:55.457Z,50.52
2017-04-28T14:39:36.130Z,50.43
2017-04-28T14:40:16.850Z,50.52
2017-04-28T14:40:57.466Z,50.62
2017-04-28T14:41:38.050Z,50.71
2017-04-28T14:42:18.605Z,50.52
2017-04-28T14:42:59.205Z,50.71
2017-04-28T14:43:39.766Z,50.71
2017-04-28T14:44:20.458Z,51.09
2017-04-28T14:45:01.095Z,50.71
2017-04-28T14:45:41.690Z,50.62
2017-04-28T14:46:22.382Z,50.93
2017-04-28T14:47:03.070Z,50.35
2017-04-28T14:47:43.685Z,49.98
2017-04-28T14:48:24.289Z,50.16
2017-04-28T14:49:04.911Z,50.35
2017-04-28T14:49:45.618Z,50.07
2017-04-28T14:50:26.818Z,49.59
2017-04-28T14:51:07.444Z,49.3
2017-04-28T14:51:48.159Z,49.14
2017-04-28T14:52:28.736Z,49.14
2017-04-28T14:53:10.404Z,49.14
2017-04-28T14:53:51.077Z,48.47
2017-04-28T14:54:31.626Z,48.66
2017-04-28T14:55:12.257Z,48.75
2017-04-28T14:55:52.828Z,48.85
2017-04-28T14:56:33.408Z,48.66
2017-04-28T14:57:14.057Z,48.57
2017-04-28T14:57:54.697Z,48.38
2017-04-28T14:58:40.351Z,48.57
2017-04-28T14:59:21.920Z,48.18
2017-04-28T15:00:02.512Z,47.99
2017-04-28T15:00:43.205Z,47.99
2017-04-28T15:01:23.789Z,47.8
2017-04-28T15:02:04.372Z,47.61
2017-04-28T15:02:45.068Z,47.8
2017-04-28T15:03:25.662Z,47.89
2017-04-28T15:04:08.223Z,47.8
2017-04-28T15:04:48.825Z,47.8
2017-04-28T15:05:31.294Z,47.61
2017-04-28T15:06:14.648Z,47.52
2017-04-28T15:06:55.213Z,47.71
2017-04-28T15:07:35.919Z,47.61
2017-04-28T15:08:16.495Z,47.89
2017-04-28T15:09:00.042Z,47.89
2017-04-28T15:09:42.990Z,47.89
2017-04-28T15:10:23.563Z,48.18
2017-04-28T15:11:05.821Z,47.99
2017-04-28T15:11:46.689Z,48.18
2017-04-28T15:12:27.324Z,48.09
2017-04-28T15:13:07.988Z,48.57
2017-04-28T15:13:48.619Z,48.57
2017-04-28T15:14:29.421Z,48.47
2017-04-28T15:15:10.018Z,48.47
2017-04-28T15:15:50.698Z,48.57
2017-04-28T15:16:31.420Z,48.47
2017-04-28T15:17:12.116Z,48.44